createdAt,value
2019-05-26T00:01:01.809Z,13.73
2019-05-26T00:03:29.427Z,11.60
2019-05-26T00:05:57.138Z,13.20
2019-05-26T00:08:24.787Z,12.33
2019-05-26T00:10:52.380Z,12.93
2019-05-26T00:13:20.035Z,10.80
2019-05-26T00:15:47.658Z,12.20
2019-05-26T00:18:15.303Z,12.67
2019-05-26T00:20:43.011Z,12.93
2019-05-26T00:23:10.648Z,11.43
2019-05-26T00:25:38.291Z,12.03
2019-05-26T00:28:05.930Z,11.60
2019-05-26T00:30:34.963Z,11.37
2019-05-26T00:33:02.598Z,11.97
2019-05-26T00:35:30.230Z,12.77
2019-05-26T00:37:57.890Z,11.83
2019-05-26T00:40:25.505Z,9.00
2019-05-26T00:42:53.157Z,9.30
2019-05-26T00:45:20.868Z,11.77
2019-05-26T00:47:48.583Z,10.30
2019-05-26T00:50:16.190Z,9.90
2019-05-26T00:52:43.839Z,12.20
2019-05-26T00:55:11.442Z,9.67
2019-05-26T00:57:39.080Z,9.67
2019-05-26T01:00:06.806Z,11.17
2019-05-26T01:02:34.434Z,10.70
2019-05-26T01:05:02.022Z,11.20
2019-05-26T01:07:29.657Z,13.37
2019-05-26T01:09:57.385Z,12.23
2019-05-26T01:12:25.048Z,9.97
2019-05-26T01:14:52.649Z,12.80
2019-05-26T01:17:20.266Z,12.73
2019-05-26T01:19:47.906Z,11.67
2019-05-26T01:22:15.516Z,14.87
2019-05-26T01:24:43.164Z,14.67
2019-05-26T01:27:10.783Z,11.57
2019-05-26T01:29:38.437Z,10.87
2019-05-26T01:32:06.045Z,13.03
2019-05-26T01:34:33.756Z,11.03
2019-05-26T01:37:01.375Z,11.67
2019-05-26T01:39:29.008Z,14.47
2019-05-26T01:41:56.661Z,11.33
2019-05-26T01:44:24.301Z,11.53
2019-05-26T01:46:51.908Z,13.37
2019-05-26T01:49:19.553Z,14.80
2019-05-26T01:51:47.178Z,11.10
2019-05-26T01:54:14.801Z,11.13
2019-05-26T01:56:42.418Z,13.30
2019-05-26T01:59:11.354Z,12.03
2019-05-26T02:01:38.947Z,11.87
2019-05-26T02:04:06.607Z,12.33
2019-05-26T02:06:34.238Z,11.50
2019-05-26T02:09:04.872Z,16.13
2019-05-26T02:11:32.477Z,14.40
2019-05-26T02:14:00.177Z,14.27
2019-05-26T02:16:27.825Z,12.57
2019-05-26T02:18:55.501Z,13.90
2019-05-26T02:21:23.104Z,15.93
2019-05-26T02:23:50.730Z,14.57
2019-05-26T02:26:18.327Z,16.53
2019-05-26T02:28:45.960Z,17.13
2019-05-26T02:31:13.574Z,13.53
2019-05-26T02:33:41.198Z,14.83
2019-05-26T02:36:08.818Z,15.90
2019-05-26T02:38:36.429Z,13.00
2019-05-26T02:41:04.347Z,15.33
2019-05-26T02:43:31.940Z,13.93
2019-05-26T02:45:59.578Z,14.43
2019-05-26T02:48:27.183Z,15.10
2019-05-26T02:50:54.821Z,16.87
2019-05-26T02:53:24.660Z,16.70
2019-05-26T02:55:51.975Z,17.90
2019-05-26T02:58:19.569Z,16.40
2019-05-26T03:00:47.494Z,18.90
2019-05-26T03:03:17.095Z,15.43
2019-05-26T03:05:45.849Z,17.03
2019-05-26T03:08:13.746Z,21.77
2019-05-26T03:10:41.487Z,20.57
2019-05-26T03:13:11.906Z,17.40
2019-05-26T03:15:39.635Z,17.03
2019-05-26T03:18:07.239Z,19.67
2019-05-26T03:20:36.864Z,20.63
2019-05-26T03:23:05.388Z,19.63
2019-05-26T03:25:34.034Z,20.20
2019-05-26T03:28:01.640Z,20.20
2019-05-26T03:30:29.262Z,24.50
2019-05-26T03:32:56.887Z,22.03
2019-05-26T03:35:24.515Z,24.77
2019-05-26T03:37:52.144Z,22.07
2019-05-26T03:40:19.786Z,22.87
2019-05-26T03:42:47.411Z,22.83
2019-05-26T03:45:25.190Z,25.07
2019-05-26T03:47:52.793Z,23.47
2019-05-26T03:50:20.421Z,28.17
2019-05-26T03:52:48.050Z,24.70
2019-05-26T03:55:15.760Z,26.73
2019-05-26T03:57:43.418Z,25.30
2019-05-26T04:00:11.487Z,25.37
2019-05-26T04:02:39.092Z,26.03
2019-05-26T04:05:06.826Z,27.17
2019-05-26T04:07:34.420Z,29.37
2019-05-26T04:10:05.579Z,30.00
2019-05-26T04:12:31.549Z,29.23
2019-05-26T04:14:59.226Z,34.33
2019-05-26T04:17:26.860Z,31.20
2019-05-26T04:19:54.484Z,27.60
2019-05-26T04:22:22.107Z,30.90
2019-05-26T04:24:49.726Z,35.37
2019-05-26T04:27:17.362Z,29.93
2019-05-26T04:29:44.958Z,32.70
2019-05-26T04:32:12.604Z,33.77
2019-05-26T04:34:40.187Z,33.93
2019-05-26T04:37:07.813Z,37.00
2019-05-26T04:39:35.457Z,37.90
2019-05-26T04:42:03.114Z,37.50
2019-05-26T04:44:30.734Z,37.60
2019-05-26T04:46:58.380Z,39.27
2019-05-26T04:49:25.986Z,38.50
2019-05-26T04:51:53.611Z,40.27
2019-05-26T04:54:21.214Z,44.27
2019-05-26T04:56:48.838Z,38.47
2019-05-26T04:59:16.457Z,43.03
2019-05-26T05:01:44.203Z,38.80
2019-05-26T05:04:11.787Z,40.73
2019-05-26T05:06:39.413Z,44.23
2019-05-26T05:09:08.372Z,44.90
2019-05-26T05:11:35.962Z,42.93
2019-05-26T05:14:03.839Z,48.63
2019-05-26T05:16:31.500Z,43.57
2019-05-26T05:18:59.119Z,52.90
2019-05-26T05:21:26.747Z,50.73
2019-05-26T05:23:54.351Z,50.30
2019-05-26T05:26:22.088Z,51.47
2019-05-26T05:28:49.698Z,50.90
2019-05-26T05:31:17.374Z,50.93
2019-05-26T05:33:45.013Z,50.87
2019-05-26T05:36:12.768Z,52.97
2019-05-26T05:38:40.375Z,53.10
2019-05-26T05:41:08.001Z,49.30
2019-05-26T05:43:35.651Z,49.90
2019-05-26T05:46:03.285Z,50.87
2019-05-26T05:48:30.960Z,48.67
2019-05-26T05:51:00.583Z,49.93
2019-05-26T05:53:28.193Z,46.83
2019-05-26T05:55:55.796Z,44.67
2019-05-26T05:58:23.440Z,48.40
2019-05-26T06:00:51.033Z,47.10
2019-05-26T06:03:18.963Z,46.00
2019-05-26T06:05:46.580Z,48.13
2019-05-26T06:08:14.217Z,43.83
2019-05-26T06:10:41.829Z,47.67
2019-05-26T06:13:09.478Z,44.60
2019-05-26T06:15:37.088Z,44.43
2019-05-26T06:18:04.725Z,41.60
2019-05-26T06:20:32.329Z,39.73
2019-05-26T06:22:59.973Z,39.10
2019-05-26T06:25:27.590Z,36.47
2019-05-26T06:27:55.226Z,39.03
2019-05-26T06:30:22.848Z,36.93
2019-05-26T06:32:50.489Z,35.67
2019-05-26T06:35:18.110Z,39.23
2019-05-26T06:37:45.736Z,37.17
2019-05-26T06:40:13.453Z,35.17
2019-05-26T06:42:41.089Z,35.33
2019-05-26T06:45:08.789Z,34.53
2019-05-26T06:47:36.418Z,36.50
2019-05-26T06:50:04.038Z,33.60
2019-05-26T06:52:31.676Z,34.43
2019-05-26T06:54:59.336Z,36.57
2019-05-26T06:57:26.994Z,32.73
2019-05-26T06:59:54.610Z,36.27
2019-05-26T07:02:22.254Z,31.57
2019-05-26T07:04:49.866Z,34.17
2019-05-26T07:07:17.485Z,36.00
2019-05-26T07:09:45.102Z,34.30
2019-05-26T07:12:12.766Z,31.60
2019-05-26T07:14:40.417Z,31.00
2019-05-26T07:17:08.167Z,30.87
2019-05-26T07:19:35.846Z,34.60
2019-05-26T07:22:03.600Z,31.03
2019-05-26T07:24:31.267Z,29.27
2019-05-26T07:26:58.963Z,31.03
2019-05-26T07:29:26.680Z,29.37
2019-05-26T07:31:54.293Z,27.70
2019-05-26T07:34:21.925Z,27.90
2019-05-26T07:36:49.520Z,29.07
2019-05-26T07:39:17.166Z,26.30
2019-05-26T07:41:44.782Z,26.23
2019-05-26T07:44:12.420Z,25.37
2019-05-26T07:46:40.045Z,25.70
2019-05-26T07:49:07.672Z,23.00
2019-05-26T07:51:35.295Z,22.98
2019-05-26T07:54:03.470Z,21.45
2019-05-26T07:56:31.204Z,22.32
2019-05-26T07:58:58.866Z,21.42
2019-05-26T08:01:35.174Z,21.97
2019-05-26T08:03:55.915Z,22.13
2019-05-26T08:06:23.515Z,21.97
2019-05-26T08:08:51.147Z,22.03
2019-05-26T08:11:18.748Z,21.00
2019-05-26T08:13:46.433Z,21.30
2019-05-26T08:16:14.029Z,20.77
2019-05-26T08:18:41.659Z,20.90
2019-05-26T08:21:09.277Z,20.77
2019-05-26T08:23:36.908Z,21.30
2019-05-26T08:26:04.531Z,20.52
2019-05-26T08:28:32.158Z,18.40
2019-05-26T08:30:59.757Z,18.60
2019-05-26T08:33:27.391Z,19.65
2019-05-26T08:35:55.006Z,18.62
2019-05-26T08:38:22.648Z,18.05
2019-05-26T08:40:50.281Z,16.30
2019-05-26T08:43:17.921Z,16.13
2019-05-26T08:45:45.576Z,14.13
2019-05-26T08:48:13.215Z,14.90
2019-05-26T08:50:40.834Z,13.68
2019-05-26T08:53:08.473Z,12.50
2019-05-26T08:55:36.082Z,13.08
2019-05-26T08:58:04.244Z,13.22
2019-05-26T09:00:31.858Z,12.88
2019-05-26T09:02:59.467Z,12.43
2019-05-26T09:05:27.101Z,12.70
2019-05-26T09:07:54.742Z,12.73
2019-05-26T09:10:22.402Z,12.45
2019-05-26T09:13:00.261Z,12.73
2019-05-26T09:15:19.587Z,11.25
2019-05-26T09:17:47.199Z,11.38
2019-05-26T09:20:14.831Z,11.43
2019-05-26T09:22:43.713Z,11.53
2019-05-26T09:25:11.343Z,10.65
2019-05-26T09:27:38.954Z,9.88
2019-05-26T09:30:06.988Z,10.08
2019-05-26T09:32:34.656Z,9.58
2019-05-26T09:35:02.397Z,10.15
2019-05-26T09:37:30.005Z,8.18
2019-05-26T09:39:57.665Z,8.25
2019-05-26T09:42:25.308Z,9.28
2019-05-26T09:44:52.953Z,8.88
2019-05-26T09:47:20.543Z,8.93
2019-05-26T09:49:48.183Z,9.18
2019-05-26T09:52:15.834Z,9.78
2019-05-26T09:54:43.484Z,7.60
2019-05-26T09:57:11.134Z,7.25
2019-05-26T09:59:38.774Z,7.05
2019-05-26T10:02:06.419Z,6.45
2019-05-26T10:04:34.025Z,10.05
2019-05-26T10:07:01.618Z,7.28
2019-05-26T10:09:29.217Z,6.58
2019-05-26T10:11:56.849Z,8.68
2019-05-26T10:14:24.481Z,7.97
2019-05-26T10:16:52.124Z,7.22
2019-05-26T10:19:19.743Z,7.83
2019-05-26T10:21:47.403Z,6.20
2019-05-26T10:24:15.019Z,7.58
2019-05-26T10:26:42.667Z,7.80
2019-05-26T10:29:10.290Z,11.30
2019-05-26T10:31:37.920Z,9.20
2019-05-26T10:34:05.567Z,7.55
2019-05-26T10:36:33.221Z,9.40
2019-05-26T10:39:00.854Z,6.87
2019-05-26T10:41:28.576Z,6.95
2019-05-26T10:43:56.129Z,7.65
2019-05-26T10:46:23.790Z,7.67
2019-05-26T10:48:51.427Z,6.45
2019-05-26T10:51:19.063Z,8.85
2019-05-26T10:53:46.701Z,9.75
2019-05-26T10:56:14.331Z,6.65
2019-05-26T10:58:41.952Z,6.25
2019-05-26T11:01:09.623Z,7.10
2019-05-26T11:03:37.233Z,9.50
2019-05-26T11:06:04.864Z,7.53
2019-05-26T11:08:34.661Z,5.80
2019-05-26T11:11:02.361Z,5.50
2019-05-26T11:13:30.602Z,5.90
2019-05-26T11:15:58.203Z,4.97
2019-05-26T11:18:25.862Z,7.30
2019-05-26T11:20:53.496Z,6.72
2019-05-26T11:23:21.167Z,7.12
2019-05-26T11:25:48.805Z,7.00
2019-05-26T11:28:16.429Z,5.87
2019-05-26T11:30:44.038Z,6.05
2019-05-26T11:33:11.705Z,5.12
2019-05-26T11:35:39.325Z,8.63
2019-05-26T11:38:06.982Z,6.03
2019-05-26T11:40:34.663Z,5.50
2019-05-26T11:43:15.774Z,5.45
2019-05-26T11:45:31.730Z,7.05
2019-05-26T11:47:59.355Z,6.60
2019-05-26T11:50:26.952Z,9.73
2019-05-26T11:52:54.604Z,7.65
2019-05-26T11:55:22.225Z,7.90
2019-05-26T11:57:49.862Z,9.50
2019-05-26T12:00:17.583Z,6.90
2019-05-26T12:02:45.253Z,7.33
2019-05-26T12:05:17.306Z,8.20
2019-05-26T12:07:42.810Z,5.75
2019-05-26T12:10:13.995Z,6.83
2019-05-26T12:12:39.900Z,8.33
2019-05-26T12:15:07.747Z,7.50
2019-05-26T12:17:35.389Z,7.60
2019-05-26T12:20:05.299Z,8.25
2019-05-26T12:22:32.815Z,8.18
2019-05-26T12:25:00.425Z,6.60
2019-05-26T12:27:28.053Z,6.67
2019-05-26T12:29:55.697Z,7.05
2019-05-26T12:32:23.331Z,6.80
2019-05-26T12:34:50.955Z,7.12
2019-05-26T12:37:18.565Z,5.45
2019-05-26T12:39:46.194Z,5.25
2019-05-26T12:42:16.912Z,6.05
2019-05-26T12:44:49.443Z,5.08
2019-05-26T12:47:12.704Z,6.08
2019-05-26T12:49:40.325Z,6.10
2019-05-26T12:52:07.941Z,6.25
2019-05-26T12:54:36.936Z,5.62
2019-05-26T12:57:04.502Z,5.35
2019-05-26T12:59:32.168Z,5.03
2019-05-26T13:01:59.761Z,5.37
2019-05-26T13:04:27.389Z,5.17
2019-05-26T13:06:55.002Z,6.92
2019-05-26T13:09:22.629Z,9.33
2019-05-26T13:11:50.338Z,13.00
2019-05-26T13:14:18.024Z,15.98
2019-05-26T13:16:45.654Z,11.55
2019-05-26T13:19:13.295Z,10.90
2019-05-26T13:21:40.919Z,7.62
2019-05-26T13:24:08.548Z,6.25
2019-05-26T13:26:36.180Z,5.45
2019-05-26T13:29:03.830Z,5.12
2019-05-26T13:31:31.470Z,6.45
2019-05-26T13:33:59.222Z,4.60
2019-05-26T13:36:27.039Z,5.33
2019-05-26T13:38:54.612Z,6.85
2019-05-26T13:41:22.228Z,4.85
2019-05-26T13:43:49.838Z,8.00
2019-05-26T13:46:17.509Z,7.78
2019-05-26T13:48:45.118Z,4.80
2019-05-26T13:51:12.760Z,5.05
2019-05-26T13:53:40.355Z,5.85
2019-05-26T13:56:08.141Z,4.62
2019-05-26T13:58:35.807Z,4.75
2019-05-26T14:01:03.542Z,6.12
2019-05-26T14:03:31.167Z,6.40
2019-05-26T14:05:58.841Z,5.60
2019-05-26T14:08:26.458Z,4.30
2019-05-26T14:10:54.093Z,4.75
2019-05-26T14:13:21.756Z,5.92
2019-05-26T14:15:49.787Z,4.90
2019-05-26T14:18:18.347Z,4.50
2019-05-26T14:20:46.057Z,4.53
2019-05-26T14:23:13.669Z,4.53
2019-05-26T14:25:41.306Z,4.78
2019-05-26T14:28:08.909Z,4.10
2019-05-26T14:30:36.598Z,4.65
2019-05-26T14:33:04.268Z,5.90
2019-05-26T14:35:51.398Z,4.37
2019-05-26T14:38:19.016Z,4.80
2019-05-26T14:40:46.680Z,6.47
2019-05-26T14:43:14.301Z,4.08
2019-05-26T14:45:52.911Z,4.05
2019-05-26T14:48:11.433Z,4.47
2019-05-26T14:50:40.775Z,4.15
2019-05-26T14:53:08.632Z,6.17
2019-05-26T14:55:36.290Z,5.20
2019-05-26T14:58:15.073Z,5.53
2019-05-26T15:00:33.580Z,5.08
2019-05-26T15:03:01.173Z,4.90
2019-05-26T15:05:28.816Z,4.97
2019-05-26T15:07:56.416Z,6.17
2019-05-26T15:10:24.061Z,5.30
2019-05-26T15:12:51.661Z,4.90
2019-05-26T15:15:19.435Z,6.17
2019-05-26T15:17:47.062Z,6.92
2019-05-26T15:20:14.759Z,5.45
2019-05-26T15:22:42.406Z,5.47
2019-05-26T15:25:10.040Z,5.60
2019-05-26T15:27:37.768Z,5.83
2019-05-26T15:30:05.783Z,6.20
2019-05-26T15:32:33.414Z,5.87
2019-05-26T15:35:01.023Z,6.67
2019-05-26T15:37:28.658Z,5.30
2019-05-26T15:39:56.285Z,4.78
2019-05-26T15:42:23.943Z,5.55
2019-05-26T15:44:51.578Z,5.67
2019-05-26T15:47:19.213Z,5.85
2019-05-26T15:49:46.834Z,8.23
2019-05-26T15:52:14.461Z,4.92
2019-05-26T15:54:42.080Z,5.35
2019-05-26T15:57:09.795Z,6.55
2019-05-26T15:59:37.420Z,5.33
2019-05-26T16:02:05.039Z,4.97
2019-05-26T16:04:32.643Z,4.75
2019-05-26T16:07:00.410Z,5.10
2019-05-26T16:09:28.103Z,5.70
2019-05-26T16:11:55.738Z,7.10
2019-05-26T16:14:23.349Z,7.83
2019-05-26T16:16:51.529Z,5.55
2019-05-26T16:19:19.233Z,6.22
2019-05-26T16:21:46.863Z,5.22
2019-05-26T16:24:14.464Z,5.35
2019-05-26T16:26:42.073Z,5.33
2019-05-26T16:29:09.711Z,7.72
2019-05-26T16:31:37.329Z,6.00
2019-05-26T16:34:04.960Z,5.97
2019-05-26T16:36:32.582Z,6.28
2019-05-26T16:39:00.240Z,6.10
2019-05-26T16:41:27.856Z,6.28
2019-05-26T16:43:55.501Z,5.30
2019-05-26T16:46:23.117Z,5.95
2019-05-26T16:48:54.318Z,7.03
2019-05-26T16:51:20.180Z,6.80
2019-05-26T16:53:47.851Z,5.28
2019-05-26T16:56:15.513Z,8.08
2019-05-26T16:58:43.161Z,5.35
2019-05-26T17:01:10.851Z,5.92
2019-05-26T17:03:38.519Z,5.22
2019-05-26T17:06:08.115Z,5.25
2019-05-26T17:08:35.604Z,6.17
2019-05-26T17:11:03.221Z,6.22
2019-05-26T17:13:32.960Z,6.90
2019-05-26T17:16:00.481Z,8.95
2019-05-26T17:18:28.144Z,6.05
2019-05-26T17:20:55.759Z,6.05
2019-05-26T17:23:23.432Z,5.75
2019-05-26T17:25:51.012Z,5.85
2019-05-26T17:28:18.658Z,4.92
2019-05-26T17:30:46.285Z,5.72
2019-05-26T17:33:13.925Z,6.10
2019-05-26T17:35:41.552Z,5.50
2019-05-26T17:38:09.223Z,4.42
2019-05-26T17:40:36.833Z,5.12
2019-05-26T17:43:04.449Z,6.22
2019-05-26T17:45:32.093Z,5.58
2019-05-26T17:47:59.707Z,5.30
2019-05-26T17:50:27.401Z,5.78
2019-05-26T17:52:55.021Z,5.65
2019-05-26T17:55:22.677Z,4.97
2019-05-26T17:57:50.296Z,6.42
2019-05-26T18:00:18.178Z,5.92
2019-05-26T18:02:45.813Z,5.80
2019-05-26T18:05:13.658Z,4.87
2019-05-26T18:07:41.303Z,5.00
2019-05-26T18:10:09.166Z,6.28
2019-05-26T18:12:36.798Z,5.90
2019-05-26T18:15:05.425Z,6.03
2019-05-26T18:17:45.887Z,5.33
2019-05-26T18:20:02.609Z,6.08
2019-05-26T18:22:30.243Z,5.92
2019-05-26T18:24:59.097Z,6.62
2019-05-26T18:27:27.154Z,5.75
2019-05-26T18:29:54.804Z,6.17
2019-05-26T18:32:25.849Z,8.18
2019-05-26T18:34:53.482Z,5.53
2019-05-26T18:37:21.208Z,5.40
2019-05-26T18:39:48.966Z,5.92
2019-05-26T18:42:16.692Z,6.65
2019-05-26T18:44:44.410Z,8.03
2019-05-26T18:47:12.121Z,6.80
2019-05-26T18:49:39.773Z,6.50
2019-05-26T18:52:07.515Z,6.85
2019-05-26T18:54:35.160Z,10.43
2019-05-26T18:57:02.845Z,10.10
2019-05-26T18:59:30.934Z,8.75
2019-05-26T19:01:58.575Z,10.23
2019-05-26T19:04:26.196Z,8.80
2019-05-26T19:06:53.892Z,7.78
2019-05-26T19:09:21.501Z,6.53
2019-05-26T19:11:49.166Z,14.58
2019-05-26T19:14:16.827Z,33.08
2019-05-26T19:16:44.445Z,15.60
2019-05-26T19:19:12.180Z,17.27
2019-05-26T19:21:39.825Z,12.70
2019-05-26T19:24:07.458Z,7.30
2019-05-26T19:26:35.094Z,5.03
2019-05-26T19:29:02.844Z,7.45
2019-05-26T19:31:30.495Z,4.30
2019-05-26T19:33:58.147Z,5.92
2019-05-26T19:36:25.804Z,4.07
2019-05-26T19:38:53.686Z,4.60
2019-05-26T19:41:21.377Z,4.57
2019-05-26T19:43:48.987Z,4.28
2019-05-26T19:46:16.713Z,3.55
2019-05-26T19:48:44.288Z,3.80
2019-05-26T19:51:12.167Z,3.70
2019-05-26T19:53:39.834Z,4.73
2019-05-26T19:56:07.452Z,3.77
2019-05-26T19:58:35.165Z,3.50
2019-05-26T20:01:02.740Z,4.33
2019-05-26T20:03:30.402Z,5.87
2019-05-26T20:05:58.367Z,4.03
2019-05-26T20:08:25.983Z,5.60
2019-05-26T20:10:53.587Z,4.28
2019-05-26T20:13:21.510Z,6.62
2019-05-26T20:15:49.137Z,4.00
2019-05-26T20:18:19.693Z,4.20
2019-05-26T20:20:47.267Z,7.65
2019-05-26T20:23:14.921Z,6.47
2019-05-26T20:25:42.667Z,6.37
2019-05-26T20:28:10.303Z,5.00
2019-05-26T20:30:37.924Z,5.50
2019-05-26T20:33:05.587Z,5.55
2019-05-26T20:35:33.185Z,5.28
2019-05-26T20:38:00.836Z,5.67
2019-05-26T20:40:28.758Z,7.78
2019-05-26T20:42:56.958Z,7.15
2019-05-26T20:45:24.616Z,6.55
2019-05-26T20:47:52.285Z,6.77
2019-05-26T20:50:29.067Z,9.55
2019-05-26T20:52:49.405Z,6.85
2019-05-26T20:55:16.993Z,6.63
2019-05-26T20:57:44.621Z,6.23
2019-05-26T21:00:13.264Z,7.47
2019-05-26T21:02:41.581Z,6.80
2019-05-26T21:05:09.187Z,8.45
2019-05-26T21:07:36.859Z,7.23
2019-05-26T21:10:04.576Z,8.85
2019-05-26T21:12:32.234Z,8.70
2019-05-26T21:15:01.038Z,7.17
2019-05-26T21:17:29.027Z,10.10
2019-05-26T21:19:56.670Z,6.95
2019-05-26T21:22:24.339Z,7.30
2019-05-26T21:24:51.974Z,6.43
2019-05-26T21:27:19.606Z,6.97
2019-05-26T21:29:47.218Z,6.67
2019-05-26T21:32:14.978Z,7.67
2019-05-26T21:34:42.714Z,7.50
2019-05-26T21:37:10.350Z,6.87
2019-05-26T21:39:37.977Z,5.77
2019-05-26T21:42:05.568Z,4.80
2019-05-26T21:44:33.200Z,5.17
2019-05-26T21:47:00.868Z,6.03
2019-05-26T21:49:28.552Z,6.07
2019-05-26T21:51:56.174Z,5.13
2019-05-26T21:54:23.844Z,5.93
2019-05-26T21:56:51.529Z,6.93
2019-05-26T21:59:19.166Z,5.60
2019-05-26T22:01:46.835Z,6.03
2019-05-26T22:04:14.492Z,5.33
2019-05-26T22:06:42.171Z,5.10
2019-05-26T22:09:09.795Z,5.03
2019-05-26T22:11:37.414Z,6.13
2019-05-26T22:14:05.060Z,6.77
2019-05-26T22:16:32.723Z,6.08
2019-05-26T22:19:00.375Z,4.70
2019-05-26T22:21:28.182Z,5.30
2019-05-26T22:23:55.868Z,6.73
2019-05-26T22:26:23.480Z,4.57
2019-05-26T22:28:51.134Z,5.00
2019-05-26T22:31:18.785Z,4.60
2019-05-26T22:33:46.430Z,5.92
2019-05-26T22:36:14.038Z,5.93
2019-05-26T22:38:41.689Z,6.00
2019-05-26T22:41:09.343Z,5.53
2019-05-26T22:43:36.945Z,4.30
2019-05-26T22:46:04.604Z,6.03
2019-05-26T22:48:32.237Z,7.67
2019-05-26T22:50:59.918Z,5.87
2019-05-26T22:53:28.330Z,7.23
2019-05-26T22:55:55.942Z,5.77
2019-05-26T22:58:23.540Z,8.30
2019-05-26T23:00:51.205Z,5.30
2019-05-26T23:03:18.842Z,4.80
2019-05-26T23:05:46.483Z,6.30
2019-05-26T23:08:14.096Z,7.37
2019-05-26T23:10:41.734Z,5.40
2019-05-26T23:13:09.394Z,6.67
2019-05-26T23:15:37.067Z,5.47
2019-05-26T23:18:04.669Z,5.67
2019-05-26T23:20:32.282Z,5.07
2019-05-26T23:22:59.886Z,5.30
2019-05-26T23:25:27.518Z,6.97
2019-05-26T23:27:55.134Z,6.00
2019-05-26T23:30:22.807Z,5.60
2019-05-26T23:32:50.438Z,6.13
2019-05-26T23:35:18.079Z,5.07
2019-05-26T23:37:45.695Z,6.80
2019-05-26T23:40:13.307Z,5.30
2019-05-26T23:42:40.923Z,7.27
2019-05-26T23:45:08.659Z,6.47
2019-05-26T23:47:36.265Z,6.70
2019-05-26T23:50:03.926Z,7.60
2019-05-26T23:52:31.548Z,7.33
2019-05-26T23:54:59.158Z,8.20
2019-05-26T23:57:26.780Z,8.93
2019-05-26T23:59:54.414Z,7.13
